Time;durP1;ratioP1;P1;durP2;ratioP2;P2;SDS_P1;SDS_P2;PMS_P1;PMS_P2;Temp;Humidity;BMP_temperature;BMP_pressure;BME280_temperature;BME280_humidity;BME280_pressure;Samples;Min_cycle;Max_cycle;Signal;HPM_P1;HPM_P2
2023/02/20 00:02:01;;;;;;;2.50;1.20;;;;;;;1.24;63.45;99649.53;1654490;86;21082;-69
2023/02/20 00:04:31;;;;;;;4.42;1.52;;;;;;;1.25;63.25;99657.98;1654297;86;21066;-66
2023/02/20 00:07:01;;;;;;;5.53;1.40;;;;;;;1.24;63.20;99650.89;1654257;87;21075;-67
2023/02/20 00:09:31;;;;;;;4.25;1.55;;;;;;;1.22;63.21;99659.64;1654219;87;21451;-68
2023/02/20 00:12:00;;;;;;;3.35;1.40;;;;;;;1.19;63.29;99651.86;1654180;87;21451;-67
2023/02/20 00:14:31;;;;;;;3.90;1.60;;;;;;;1.17;63.10;99654.36;1654220;86;21011;-67
2023/02/20 00:17:00;;;;;;;5.17;1.37;;;;;;;1.15;63.20;99656.38;1599755;89;21152;-67
2023/02/20 00:19:29;;;;;;;3.90;1.32;;;;;;;1.14;63.14;99665.47;1599702;90;21530;-67
2023/02/20 00:22:00;;;;;;;2.70;1.30;;;;;;;1.14;63.25;99668.16;1599844;89;21086;-66
2023/02/20 00:24:30;;;;;;;2.40;1.40;;;;;;;1.13;63.23;99661.08;1599467;90;21085;-67
2023/02/20 00:27:00;;;;;;;4.47;1.27;;;;;;;1.11;63.08;99654.98;1599496;89;21567;-66
2023/02/20 00:29:30;;;;;;;6.80;1.60;;;;;;;1.10;63.04;99659.53;1599413;90;21549;-67
2023/02/20 00:32:01;;;;;;;5.00;1.62;;;;;;;1.08;63.16;99661.54;1599592;90;21113;-66
2023/02/20 00:34:33;;;;;;;4.28;1.47;;;;;;;1.09;63.18;99656.99;1599626;90;21524;-65
2023/02/20 00:37:04;;;;;;;4.25;1.20;;;;;;;1.07;63.27;99651.75;1599502;90;21058;-67
2023/02/20 00:39:33;;;;;;;3.35;1.45;;;;;;;1.03;63.19;99645.48;1599778;90;21085;-65
2023/02/20 00:42:03;;;;;;;3.05;1.17;;;;;;;0.97;63.32;99649.64;1599687;90;21141;-65
2023/02/20 00:44:33;;;;;;;3.37;1.30;;;;;;;0.95;63.57;99660.59;1599438;90;21117;-65
2023/02/20 00:47:03;;;;;;;3.60;1.00;;;;;;;0.94;63.72;99653.50;1599413;90;21555;-66
2023/02/20 00:49:33;;;;;;;5.12;1.40;;;;;;;0.94;63.62;99649.45;1585234;89;21110;-66
2023/02/20 00:52:12;;;;;;;1.62;0.90;;;;;;;0.92;63.55;99651.45;1584345;90;21093;-66
2023/02/20 00:54:43;;;;;;;3.65;1.27;;;;;;;0.91;63.26;99652.45;1584350;90;21120;-66
2023/02/20 00:57:13;;;;;;;2.45;1.10;;;;;;;0.88;63.28;99651.42;1584385;89;21082;-67
2023/02/20 00:59:41;;;;;;;1.45;0.90;;;;;;;0.87;63.20;99644.33;1584404;90;21037;-66
2023/02/20 01:02:13;;;;;;;2.17;1.20;;;;;;;0.87;63.12;99646.18;1584756;89;21093;-66
2023/02/20 01:04:41;;;;;;;6.40;1.45;;;;;;;0.86;63.19;99648.53;1584353;90;21038;-65
2023/02/20 01:07:10;;;;;;;3.15;1.35;;;;;;;0.83;63.18;99648.84;1584580;90;21026;-66
2023/02/20 01:09:40;;;;;;;4.47;1.20;;;;;;;0.82;63.25;99645.80;1584367;90;21125;-65
2023/02/20 01:12:11;;;;;;;2.12;1.00;;;;;;;0.81;63.31;99648.14;1584506;90;21022;-66
2023/02/20 01:14:42;;;;;;;4.00;1.22;;;;;;;0.80;63.35;99654.04;1584330;90;21074;-66
2023/02/20 01:17:13;;;;;;;7.85;1.70;;;;;;;0.79;63.43;99650.99;1584538;90;21516;-66
2023/02/20 01:19:43;;;;;;;5.25;1.37;;;;;;;0.78;63.38;99652.50;1584289;90;21077;-67
2023/02/20 01:22:12;;;;;;;3.55;1.20;;;;;;;0.76;63.42;99653.16;1584419;90;21082;-65
2023/02/20 01:24:43;;;;;;;3.00;1.20;;;;;;;0.76;63.52;99654.00;1584401;90;21094;-65
2023/02/20 01:27:13;;;;;;;2.58;1.10;;;;;;;0.76;63.43;99644.56;1584490;90;21102;-66
2023/02/20 01:29:43;;;;;;;5.15;1.62;;;;;;;0.77;63.37;99652.15;1584464;90;21023;-66
2023/02/20 01:32:12;;;;;;;4.47;1.40;;;;;;;0.75;63.38;99644.72;1584315;90;21102;-67
2023/02/20 01:34:42;;;;;;;3.72;1.17;;;;;;;0.72;63.50;99658.50;1584317;89;21090;-66
2023/02/20 01:37:13;;;;;;;3.10;1.10;;;;;;;0.70;63.41;99646.52;1584504;90;21026;-67
2023/02/20 01:39:46;;;;;;;3.10;1.05;;;;;;;0.67;63.29;99652.22;1584309;90;21196;-66
2023/02/20 01:42:22;;;;;;;4.37;1.20;;;;;;;0.64;63.05;99647.11;1584330;90;21102;-66
2023/02/20 01:44:53;;;;;;;2.05;0.93;;;;;;;0.62;63.06;99649.95;1584259;89;21062;-66
2023/02/20 01:47:22;;;;;;;3.22;1.05;;;;;;;0.62;63.20;99653.15;1584540;90;21125;-67
2023/02/20 01:49:58;;;;;;;4.97;1.10;;;;;;;0.62;63.15;99647.76;1584314;89;21073;-65
2023/02/20 01:52:30;;;;;;;3.67;1.27;;;;;;;0.62;62.79;99651.30;1633021;86;21066;-66
2023/02/20 01:55:12;;;;;;;2.30;1.00;;;;;;;0.58;62.90;99664.73;1633162;88;21083;-65
2023/02/20 01:57:52;;;;;;;3.47;1.25;;;;;;;0.56;62.88;99660.50;1632153;86;21511;-65
2023/02/20 02:00:23;;;;;;;3.55;1.32;;;;;;;0.57;62.95;99660.84;1602332;89;21067;-65
2023/02/20 02:03:06;;;;;;;3.37;1.22;;;;;;;0.55;62.83;99659.64;1602343;89;21086;-65
2023/02/20 02:05:38;;;;;;;2.98;1.05;;;;;;;0.54;62.81;99666.53;1602091;89;21588;-66
2023/02/20 02:08:08;;;;;;;3.75;0.95;;;;;;;0.57;63.01;99664.89;1602154;89;21063;-65
2023/02/20 02:11:03;;;;;;;5.97;1.02;;;;;;;0.56;62.77;99669.43;1602149;89;21095;-65
2023/02/20 02:13:37;;;;;;;;;;;;;;;0.53;62.87;99661.64;1604717;89;21050;-66
2023/02/20 02:16:38;;;;;;;1.90;1.12;;;;;;;0.51;62.95;99657.41;1602527;89;20501;-66
2023/02/20 02:19:57;;;;;;;2.80;0.88;;;;;;;0.49;63.02;99651.32;1602147;89;21046;-66
2023/02/20 02:23:14;;;;;;;3.55;1.17;;;;;;;0.50;63.03;99665.99;1584434;90;21213;-66
2023/02/20 02:25:57;;;;;;;3.20;1.37;;;;;;;0.44;63.01;99657.67;1632508;88;21119;-66
2023/02/20 02:29:05;;;;;;;2.85;1.25;;;;;;;0.39;63.12;99668.90;1632966;88;21075;-66
2023/02/20 02:32:01;;;;;;;5.60;1.20;;;;;;;0.40;63.23;99647.69;1633185;88;21559;-65
2023/02/20 02:34:58;;;;;;;2.55;1.22;;;;;;;0.40;63.25;99665.70;1633182;88;21115;-66
2023/02/20 02:37:54;;;;;;;;;;;;;;;0.36;63.44;99659.77;1635252;88;22050;-65
2023/02/20 02:40:30;;;;;;;2.85;1.12;;;;;;;0.34;63.51;99665.81;1611468;88;20206;-66
2023/02/20 02:43:22;;;;;;;1.87;1.10;;;;;;;0.29;63.43;99664.91;1633005;88;21084;-65
2023/02/20 02:45:56;;;;;;;4.22;1.05;;;;;;;0.29;63.48;99669.45;1632951;88;21051;-66
2023/02/20 02:48:41;;;;;;;2.85;1.30;;;;;;;0.27;63.45;99666.91;1631015;87;21139;-67
2023/02/20 02:51:15;;;;;;;7.40;1.07;;;;;;;0.25;63.51;99672.95;1621945;88;21063;-65
2023/02/20 02:54:08;;;;;;;2.52;1.15;;;;;;;0.27;63.50;99674.14;1658739;86;21035;-67
2023/02/20 02:56:44;;;;;;;4.75;1.27;;;;;;;0.23;63.56;99668.20;1658690;85;21430;-66
2023/02/20 02:59:23;;;;;;;3.62;1.00;;;;;;;0.21;63.46;99666.16;1658946;86;21039;-67
2023/02/20 03:01:59;;;;;;;2.05;0.98;;;;;;;0.20;63.48;99667.16;1658972;86;21051;-66
2023/02/20 03:04:27;;;;;;;2.30;1.10;;;;;;;0.19;63.31;99664.62;1658612;86;21019;-67
2023/02/20 03:07:10;;;;;;;7.47;1.17;;;;;;;0.17;63.33;99666.61;1658744;86;21031;-67
2023/02/20 03:09:50;;;;;;;3.02;0.90;;;;;;;0.17;63.36;99659.88;1658657;86;21056;-67
2023/02/20 03:12:19;;;;;;;5.70;1.25;;;;;;;0.16;63.36;99663.56;1658598;86;21023;-67
2023/02/20 03:18:38;;;;;;;4.03;1.40;;;;;;;0.16;63.32;99663.06;1658860;86;21043;-66
2023/02/20 03:21:13;;;;;;;3.33;1.00;;;;;;;0.14;63.10;99657.48;1658587;86;21027;-68
2023/02/20 03:23:45;;;;;;;5.72;1.25;;;;;;;0.14;62.98;99666.41;1658609;86;21012;-68
2023/02/20 03:26:17;;;;;;;2.47;0.90;;;;;;;0.12;63.02;99663.02;1658794;86;21048;-66
2023/02/20 03:28:59;;;;;;;2.15;0.90;;;;;;;0.11;62.92;99659.13;1658619;86;21051;-65
2023/02/20 03:31:35;;;;;;;2.30;1.10;;;;;;;0.08;63.00;99662.97;1658442;86;21454;-66
2023/02/20 03:45:39;;;;;;;4.58;0.95;;;;;;;-0.01;62.97;99668.71;1658711;86;21045;-65
2023/02/20 03:48:26;;;;;;;5.35;1.40;;;;;;;0.01;62.98;99676.68;1658547;86;21032;-68
2023/02/20 03:50:55;;;;;;;5.17;1.27;;;;;;;0.03;62.99;99668.45;1626559;86;21055;-67
2023/02/20 03:53:25;;;;;;;4.40;1.20;;;;;;;0.03;62.91;99667.95;1658577;86;21079;-65
2023/02/20 03:55:54;;;;;;;3.17;1.15;;;;;;;0.01;62.78;99662.36;1658789;86;21047;-67
2023/02/20 03:58:24;;;;;;;4.37;1.40;;;;;;;-0.02;62.79;99667.52;1658522;86;21047;-65
2023/02/20 04:00:53;;;;;;;4.10;1.17;;;;;;;-0.03;62.68;99668.52;1658608;86;21035;-66
2023/02/20 04:03:26;;;;;;;4.53;0.93;;;;;;;-0.03;62.56;99657.74;1636001;86;21032;-67
2023/02/20 04:05:56;;;;;;;4.50;1.65;;;;;;;-0.06;62.41;99658.03;1658614;86;21055;-65
2023/02/20 04:08:37;;;;;;;3.70;1.00;;;;;;;-0.07;62.49;99656.34;1657715;86;21051;-67
2023/02/20 04:11:26;;;;;;;3.08;1.10;;;;;;;-0.07;62.47;99659.03;1651687;86;21565;-66
2023/02/20 04:13:56;;;;;;;8.60;1.55;;;;;;;-0.08;62.39;99661.38;1658446;86;21447;-65
2023/02/20 04:16:25;;;;;;;5.25;1.10;;;;;;;-0.07;62.49;99652.30;1658607;86;21480;-66
2023/02/20 04:18:54;;;;;;;4.75;1.10;;;;;;;-0.06;62.32;99640.53;1658758;86;21459;-67
2023/02/20 04:21:35;;;;;;;3.02;1.02;;;;;;;-0.10;62.17;99649.41;1658549;86;21451;-67
2023/02/20 04:24:11;;;;;;;2.30;0.80;;;;;;;-0.14;62.22;99643.13;1658521;86;21012;-67
2023/02/20 04:26:41;;;;;;;2.87;1.00;;;;;;;-0.21;62.49;99654.13;1658831;86;20996;-66
2023/02/20 04:29:10;;;;;;;2.85;1.20;;;;;;;-0.21;62.49;99654.13;1658685;86;21023;-66
2023/02/20 04:31:39;;;;;;;3.95;1.27;;;;;;;-0.21;62.60;99649.59;1658706;86;21039;-65
2023/02/20 04:34:08;;;;;;;2.72;1.02;;;;;;;-0.21;62.54;99650.94;1658954;86;21064;-67
2023/02/20 04:36:38;;;;;;;2.90;1.00;;;;;;;-0.23;62.57;99648.05;1658590;86;21480;-68
2023/02/20 04:39:07;;;;;;;3.55;1.15;;;;;;;-0.25;62.42;99639.27;1658789;86;21011;-66
2023/02/20 04:41:36;;;;;;;5.10;1.65;;;;;;;-0.27;62.47;99652.03;1658681;86;21444;-66
2023/02/20 04:46:52;;;;;;;6.67;1.50;;;;;;;-0.25;62.52;99651.39;1658792;86;21000;-65
2023/02/20 04:49:21;;;;;;;3.47;1.00;;;;;;;-0.25;62.58;99651.39;1657678;86;21124;-65
2023/02/20 04:51:52;;;;;;;5.72;1.30;;;;;;;-0.24;62.63;99645.01;1654393;87;21051;-66
2023/02/20 04:54:22;;;;;;;2.62;1.27;;;;;;;-0.26;62.41;99648.34;1654056;87;21016;-67
2023/02/20 04:56:52;;;;;;;3.37;1.22;;;;;;;-0.28;62.63;99641.77;1654104;87;21024;-66
2023/02/20 04:59:21;;;;;;;4.00;1.10;;;;;;;-0.29;62.69;99641.91;1654156;87;21096;-66
2023/02/20 05:01:50;;;;;;;3.55;1.00;;;;;;;-0.28;62.79;99645.80;1654170;87;21080;-67
2023/02/20 05:04:19;;;;;;;3.12;0.80;;;;;;;-0.28;62.78;99641.77;1654349;87;21024;-66
2023/02/20 05:06:52;;;;;;;4.30;0.80;;;;;;;-0.28;62.83;99643.11;1654225;86;21044;-67
2023/02/20 05:09:21;;;;;;;3.12;1.20;;;;;;;-0.26;62.83;99649.69;1654216;87;21059;-67
2023/02/20 05:11:50;;;;;;;3.75;1.00;;;;;;;-0.27;62.86;99656.06;1654417;87;21075;-66
2023/02/20 05:14:19;;;;;;;1.90;0.80;;;;;;;-0.28;62.95;99664.64;1654358;87;21071;-67
2023/02/20 05:16:50;;;;;;;4.90;1.10;;;;;;;-0.29;63.07;99656.22;1654380;86;21068;-66
2023/02/20 05:19:18;;;;;;;3.45;1.05;;;;;;;-0.28;63.11;99661.10;1654150;87;21020;-67
2023/02/20 05:24:36;;;;;;;3.00;0.98;;;;;;;-0.29;63.18;99680.44;1654168;86;21082;-68
2023/02/20 05:27:05;;;;;;;5.15;0.93;;;;;;;-0.27;63.14;99669.03;1654299;86;21067;-67
2023/02/20 05:29:35;;;;;;;8.88;2.05;;;;;;;-0.27;63.03;99676.25;1654270;87;21515;-68
2023/02/20 05:32:04;;;;;;;1.87;1.10;;;;;;;-0.29;63.09;99671.52;1654388;86;21047;-67
2023/02/20 05:34:36;;;;;;;5.95;1.40;;;;;;;-0.32;63.10;99670.81;1654129;87;21481;-69
2023/02/20 05:37:05;;;;;;;6.00;1.20;;;;;;;-0.33;63.23;99683.92;1654267;86;21048;-68
2023/02/20 05:39:34;;;;;;;2.47;1.15;;;;;;;-0.30;63.24;99676.05;1654227;86;21015;-67
2023/02/20 05:42:04;;;;;;;4.80;1.17;;;;;;;-0.30;63.19;99681.93;1654134;87;21494;-67
2023/02/20 05:44:33;;;;;;;7.97;1.70;;;;;;;-0.31;63.09;99682.42;1654084;87;21027;-68
2023/02/20 05:47:03;;;;;;;3.92;1.45;;;;;;;-0.32;63.07;99677.55;1654106;87;21039;-69
2023/02/20 05:49:34;;;;;;;8.30;1.95;;;;;;;-0.28;63.13;99674.56;1655824;86;21532;-68
2023/02/20 05:52:10;;;;;;;4.45;1.20;;;;;;;-0.23;63.17;99680.35;1665062;86;21059;-68
2023/02/20 05:54:36;;;;;;;7.62;4.10;;;;;;;-0.20;63.11;99681.41;1665228;86;21071;-68
2023/02/20 05:57:05;;;;;;;7.78;1.37;;;;;;;-0.18;62.91;99683.45;1665065;86;21031;-66
2023/02/20 05:59:33;;;;;;;3.50;1.40;;;;;;;-0.18;62.89;99678.91;1665169;86;21059;-68
2023/02/20 06:02:02;;;;;;;4.65;1.00;;;;;;;-0.18;62.73;99676.22;1665604;86;21491;-66
2023/02/20 06:04:31;;;;;;;4.08;1.12;;;;;;;-0.17;62.70;99689.19;1665407;86;21051;-67
2023/02/20 06:07:00;;;;;;;7.47;1.45;;;;;;;-0.16;62.60;99684.16;1665125;86;21039;-68
2023/02/20 06:09:29;;;;;;;4.58;1.07;;;;;;;-0.16;62.58;99672.89;1665065;86;21059;-67
2023/02/20 06:12:00;;;;;;;1.72;1.00;;;;;;;-0.14;62.56;99676.77;1665264;86;21015;-66
2023/02/20 06:14:29;;;;;;;8.78;1.37;;;;;;;-0.13;62.29;99671.73;1665066;86;21443;-68
2023/02/20 06:16:58;;;;;;;4.70;1.20;;;;;;;-0.14;62.32;99672.23;1665349;86;21035;-68
2023/02/20 06:19:29;;;;;;;9.55;5.05;;;;;;;-0.11;62.39;99684.06;1664986;86;21079;-67
2023/02/20 06:21:58;;;;;;;6.65;1.20;;;;;;;-0.08;62.29;99692.34;1664964;86;22045;-68
2023/02/20 06:24:28;;;;;;;8.03;1.17;;;;;;;-0.07;62.14;99664.42;1665211;86;21043;-69
2023/02/20 06:26:57;;;;;;;5.90;1.50;;;;;;;-0.06;62.16;99679.08;1664898;86;21103;-67
2023/02/20 06:29:27;;;;;;;12.05;1.30;;;;;;;-0.04;62.19;99695.94;1664967;86;21400;-67
2023/02/20 06:31:59;;;;;;;18.80;3.05;;;;;;;0.01;61.83;99708.14;1665187;86;21044;-65
2023/02/20 06:34:32;;;;;;;6.92;1.40;;;;;;;0.04;61.80;99692.54;1664963;86;21157;-68
2023/02/20 06:37:01;;;;;;;9.20;1.45;;;;;;;0.07;61.73;99682.81;1665311;86;21062;-68
2023/02/20 06:39:32;;;;;;;11.90;1.20;;;;;;;0.10;61.43;99706.76;1665067;86;21485;-68
2023/02/20 06:42:01;;;;;;;3.30;1.10;;;;;;;0.10;61.30;99685.22;1665024;86;21023;-67
2023/02/20 06:44:32;;;;;;;8.98;1.35;;;;;;;0.12;61.33;99691.80;1665232;86;20984;-67
2023/02/20 06:47:07;;;;;;;5.10;1.22;;;;;;;0.14;61.36;99689.30;1665207;86;21027;-67
2023/02/20 06:49:32;;;;;;;7.03;1.57;;;;;;;0.20;61.22;99685.17;1664465;86;21011;-68
2023/02/20 06:52:02;;;;;;;10.13;1.40;;;;;;;0.22;61.17;99697.48;1653969;87;21054;-68
2023/02/20 06:54:33;;;;;;;5.08;1.60;;;;;;;0.26;60.96;99690.80;1654064;87;21090;-69
2023/02/20 06:57:03;;;;;;;4.75;1.87;;;;;;;0.30;60.87;99692.70;1654008;87;21479;-68
2023/02/20 06:59:38;;;;;;;11.65;2.20;;;;;;;0.31;60.72;99690.36;1631756;87;21078;-70
2023/02/20 07:02:04;;;;;;;7.87;1.52;;;;;;;0.35;60.83;99694.95;1653760;87;21121;-69
2023/02/20 07:04:33;;;;;;;9.55;1.62;;;;;;;0.39;60.61;99694.99;1654037;87;21066;-69
2023/02/20 07:07:03;;;;;;;3.95;1.40;;;;;;;0.41;60.46;99688.95;1653877;87;22066;-66
2023/02/20 07:09:32;;;;;;;12.13;1.85;;;;;;;0.45;60.52;99699.78;1653788;87;21466;-68
2023/02/20 07:12:03;;;;;;;4.53;1.40;;;;;;;0.49;60.11;99698.48;1599288;90;21113;-68
2023/02/20 07:14:32;;;;;;;2.45;0.95;;;;;;;0.52;60.27;99707.62;1599226;90;21170;-70
2023/02/20 07:17:02;;;;;;;4.03;1.20;;;;;;;0.58;60.07;99707.02;1599544;90;21151;-67
2023/02/20 07:19:31;;;;;;;9.83;1.70;;;;;;;0.60;59.80;99707.70;1599566;90;21179;-68
2023/02/20 07:22:00;;;;;;;8.30;1.32;;;;;;;0.64;59.86;99709.10;1599653;90;21171;-70
2023/02/20 07:24:31;;;;;;;14.35;1.75;;;;;;;0.68;59.65;99709.68;1541088;93;21488;-67
2023/02/20 07:27:01;;;;;;;18.02;1.98;;;;;;;0.67;59.38;99722.31;1540908;93;21100;-68
2023/02/20 07:29:30;;;;;;;4.67;1.20;;;;;;;0.67;59.13;99702.09;1551042;90;21036;-66
2023/02/20 07:32:00;;;;;;;1.70;1.20;;;;;;;0.71;59.12;99707.53;1590925;90;21089;-67
2023/02/20 07:34:31;;;;;;;3.60;0.90;;;;;;;0.72;58.97;99699.78;1590738;90;21536;-67
2023/02/20 07:37:00;;;;;;;10.60;1.20;;;;;;;0.76;58.82;99707.07;1590723;90;21073;-68
2023/02/20 07:39:30;;;;;;;11.70;1.45;;;;;;;0.80;58.79;99709.81;1590640;90;21198;-66
2023/02/20 07:42:01;;;;;;;9.85;1.60;;;;;;;0.85;58.78;99712.90;1605590;87;21495;-68
2023/02/20 07:44:35;;;;;;;5.78;1.30;;;;;;;0.91;58.75;99721.23;1644294;87;21538;-66
2023/02/20 07:47:04;;;;;;;2.90;1.10;;;;;;;0.98;57.97;99701.73;1653998;87;21058;-68
2023/02/20 07:49:35;;;;;;;5.08;1.35;;;;;;;1.00;57.64;99698.38;1599410;89;21066;-68
2023/02/20 07:52:04;;;;;;;4.00;1.00;;;;;;;1.00;57.36;99712.72;1628906;86;21506;-68
2023/02/20 07:54:36;;;;;;;6.22;1.60;;;;;;;1.02;57.44;99705.81;1630119;88;21055;-67
2023/02/20 07:57:05;;;;;;;9.30;1.77;;;;;;;1.05;56.95;99705.52;1630210;88;21063;-68
2023/02/20 07:59:34;;;;;;;38.48;3.35;;;;;;;1.06;56.85;99695.92;1630096;88;21581;-67
2023/02/20 08:02:03;;;;;;;3.85;1.37;;;;;;;1.10;56.64;99700.00;1630302;88;21067;-66
2023/02/20 08:04:32;;;;;;;10.95;1.50;;;;;;;1.20;56.35;99689.13;1630339;88;21075;-67
2023/02/20 08:07:01;;;;;;;8.18;1.80;;;;;;;1.48;56.40;99682.64;1630257;88;21023;-66
2023/02/20 08:09:30;;;;;;;4.45;1.37;;;;;;;1.98;55.43;99680.63;1630229;88;21972;-67
2023/02/20 08:11:59;;;;;;;10.38;1.50;;;;;;;2.49;54.79;99691.00;1630470;88;21396;-68
2023/02/20 08:14:30;;;;;;;8.80;1.60;;;;;;;2.91;52.34;99676.61;1630313;88;21111;-67
2023/02/20 08:16:59;;;;;;;6.05;1.70;;;;;;;3.27;51.68;99690.72;1630432;88;21538;-68
2023/02/20 08:19:28;;;;;;;9.45;1.87;;;;;;;3.61;49.76;99695.96;1614032;88;21134;-66
2023/02/20 08:21:57;;;;;;;5.87;1.35;;;;;;;3.77;49.17;99676.47;1630606;88;21396;-68
2023/02/20 08:24:27;;;;;;;3.77;1.40;;;;;;;3.99;49.26;99682.22;1630440;88;21110;-66
2023/02/20 08:26:56;;;;;;;3.83;1.65;;;;;;;4.26;48.23;99666.03;1630642;88;21114;-69
2023/02/20 08:29:29;;;;;;;9.30;1.87;;;;;;;4.42;47.28;99668.17;1630436;88;21063;-67
2023/02/20 08:32:00;;;;;;;8.13;2.00;;;;;;;4.63;46.57;99666.23;1630304;88;21053;-66
2023/02/20 08:34:30;;;;;;;6.37;1.70;;;;;;;4.69;46.06;99662.81;1630233;88;21063;-68
2023/02/20 08:37:00;;;;;;;11.57;1.80;;;;;;;4.63;45.65;99687.94;1630325;88;21055;-66
2023/02/20 08:39:32;;;;;;;6.55;1.80;;;;;;;4.62;45.46;99671.84;1630137;88;21121;-68
2023/02/20 08:42:01;;;;;;;4.67;1.90;;;;;;;4.59;45.88;99681.17;1630247;88;21019;-65
2023/02/20 08:44:30;;;;;;;5.53;1.85;;;;;;;4.66;45.31;99679.45;1630409;88;21075;-65
2023/02/20 08:46:59;;;;;;;11.93;2.15;;;;;;;4.69;44.82;99675.53;1630537;88;21043;-66
2023/02/20 08:49:28;;;;;;;7.03;2.00;;;;;;;4.68;45.32;99690.97;1630198;88;21545;-67
2023/02/20 08:51:59;;;;;;;8.10;2.10;;;;;;;4.70;45.32;99684.00;1623869;88;21083;-67
2023/02/20 08:54:28;;;;;;;5.78;1.80;;;;;;;4.68;44.71;99699.62;1622006;88;21475;-66
2023/02/20 08:56:57;;;;;;;5.80;1.55;;;;;;;4.49;44.64;99681.87;1622154;88;21463;-66
2023/02/20 08:59:31;;;;;;;17.75;2.30;;;;;;;4.27;44.61;99673.15;1621925;88;21012;-67
2023/02/20 09:02:00;;;;;;;11.25;2.77;;;;;;;4.10;45.35;99677.78;1658857;86;21035;-70
2023/02/20 09:04:30;;;;;;;14.50;2.72;;;;;;;4.00;45.17;99669.84;1658374;86;21912;-70
2023/02/20 09:06:59;;;;;;;12.00;2.70;;;;;;;3.86;47.08;99670.52;1647146;86;21070;-71
2023/02/20 09:09:29;;;;;;;9.33;1.60;;;;;;;3.76;45.77;99677.99;1658236;85;21074;-70
2023/02/20 09:12:00;;;;;;;9.15;1.90;;;;;;;3.68;45.15;99672.59;1647979;86;21012;-69
2023/02/20 09:14:30;;;;;;;12.43;1.85;;;;;;;3.53;45.03;99685.13;1675989;85;21094;-69
2023/02/20 09:17:01;;;;;;;7.70;1.70;;;;;;;3.38;45.34;99704.77;1681500;85;21548;-71
2023/02/20 09:19:30;;;;;;;6.47;1.70;;;;;;;3.26;45.69;99666.02;1645497;87;21433;-70
2023/02/20 09:21:59;;;;;;;10.93;1.40;;;;;;;3.21;46.04;99673.25;1645097;87;21046;-70
2023/02/20 09:24:32;;;;;;;6.83;1.72;;;;;;;3.19;45.51;99669.88;1645228;87;21110;-70
2023/02/20 09:27:21;;;;;;;6.90;2.00;;;;;;;3.22;45.93;99663.27;1670782;85;21047;-71
2023/02/20 09:29:50;;;;;;;4.87;1.67;;;;;;;3.28;46.09;99664.83;1609529;89;21134;-70
2023/02/20 09:32:19;;;;;;;7.87;1.75;;;;;;;3.31;45.91;99657.72;1659602;86;21557;-68
2023/02/20 09:34:49;;;;;;;10.88;2.02;;;;;;;3.36;45.86;99654.00;1659843;86;21474;-70
2023/02/20 09:37:18;;;;;;;5.75;1.80;;;;;;;3.41;45.55;99658.39;1659976;86;21064;-71
2023/02/20 09:39:49;;;;;;;6.85;1.47;;;;;;;3.46;45.60;99661.44;1659765;86;21035;-70
2023/02/20 09:42:35;;;;;;;6.80;1.40;;;;;;;3.49;44.75;99657.03;1659542;86;21051;-68
2023/02/20 09:45:16;;;;;;;4.83;1.62;;;;;;;3.44;44.66;99651.29;1634558;86;21075;-70
2023/02/20 09:48:10;;;;;;;6.35;2.47;;;;;;;3.37;44.75;99653.49;1662224;85;21237;-69
2023/02/20 09:50:45;;;;;;;12.70;1.60;;;;;;;3.39;45.11;99647.40;1634260;88;21135;-69
2023/02/20 09:53:40;;;;;;;7.25;1.60;;;;;;;3.44;44.32;99649.94;1659771;86;21059;-67
2023/02/20 09:56:16;;;;;;;4.58;1.82;;;;;;;3.41;44.43;99643.50;1717460;83;21050;-67
2023/02/20 09:58:59;;;;;;;;;;;;;;;3.40;44.44;99647.23;1693018;85;21075;-68
2023/02/20 10:01:28;;;;;;;7.67;2.77;;;;;;;3.43;44.65;99647.39;1690571;85;20283;-70
2023/02/20 10:04:16;;;;;;;7.70;2.83;;;;;;;3.45;44.94;99634.53;1720472;83;21021;-68
2023/02/20 10:06:46;;;;;;;6.08;2.20;;;;;;;3.50;44.82;99630.80;1690127;85;21463;-68
2023/02/20 10:09:16;;;;;;;5.40;2.00;;;;;;;3.56;45.12;99619.28;1720227;83;21035;-68
2023/02/20 10:12:03;;;;;;;6.22;2.00;;;;;;;3.63;44.96;99616.22;1690397;85;21436;-69
2023/02/20 10:14:52;;;;;;;8.35;1.50;;;;;;;3.67;44.77;99618.92;1690647;85;21036;-68
2023/02/20 10:17:31;;;;;;;7.42;1.65;;;;;;;3.72;44.69;99622.47;1690928;84;21044;-69
2023/02/20 10:20:19;;;;;;;;;;;;;;;3.66;44.91;99628.58;1693484;84;21524;-69
2023/02/20 10:23:23;;;;;;;8.08;1.35;;;;;;;3.61;44.70;99607.42;1671095;86;20187;-70
2023/02/20 10:25:55;;;;;;;7.72;2.10;;;;;;;3.53;44.57;99618.78;1690807;84;21057;-69
2023/02/20 10:28:24;;;;;;;7.17;2.10;;;;;;;3.49;45.01;99617.77;1647089;86;21041;-69
2023/02/20 10:31:19;;;;;;;9.75;1.62;;;;;;;3.52;45.05;99619.29;1691185;84;21116;-70
2023/02/20 10:34:11;;;;;;;3.98;1.67;;;;;;;3.57;45.39;99604.72;1671078;86;21044;-70
2023/02/20 10:36:50;;;;;;;8.63;1.90;;;;;;;3.59;45.25;99603.20;1691456;84;21122;-69
2023/02/20 10:39:20;;;;;;;7.03;2.00;;;;;;;3.59;45.42;99597.78;1670996;86;21503;-71
2023/02/20 10:41:58;;;;;;;6.10;2.02;;;;;;;3.60;45.75;99592.70;1691200;84;21032;-70
2023/02/20 10:44:53;;;;;;;7.78;2.12;;;;;;;3.61;45.95;99565.95;1670867;86;21468;-69
2023/02/20 10:47:47;;;;;;;15.32;3.25;;;;;;;3.62;46.46;99561.72;1691235;85;21033;-67
2023/02/20 10:50:42;;;;;;;4.55;1.67;;;;;;;3.70;46.63;99570.33;1670961;84;21502;-68
2023/02/20 10:53:38;;;;;;;5.30;1.80;;;;;;;3.80;46.02;99569.61;1690891;85;21103;-69
2023/02/20 10:56:28;;;;;;;6.55;2.05;;;;;;;3.84;45.79;99577.73;1666688;86;21104;-69
2023/02/20 10:59:26;;;;;;;6.17;1.72;;;;;;;3.84;45.67;99545.21;1680818;85;21152;-70
2023/02/20 11:01:56;;;;;;;4.35;1.30;;;;;;;3.86;47.87;99551.30;1713521;83;21049;-69
2023/02/20 11:04:34;;;;;;;6.12;1.90;;;;;;;3.92;46.39;99543.86;1676965;84;20998;-70
2023/02/20 11:07:21;;;;;;;4.92;1.55;;;;;;;3.99;46.36;99547.55;1711473;84;21101;-69
2023/02/20 11:09:50;;;;;;;2.80;1.40;;;;;;;4.07;46.09;99549.38;1710711;84;21029;-70
2023/02/20 11:12:33;;;;;;;3.47;1.40;;;;;;;4.07;46.11;99548.86;1710154;84;21093;-70
2023/02/20 11:15:16;;;;;;;2.37;1.27;;;;;;;4.10;46.20;99542.25;1675934;85;21543;-69
2023/02/20 11:17:46;;;;;;;5.85;1.40;;;;;;;4.14;46.34;99549.84;1710711;84;21078;-69
2023/02/20 11:20:37;;;;;;;5.30;1.50;;;;;;;4.20;45.75;99552.87;1683964;84;21054;-67
2023/02/20 11:23:06;;;;;;;3.67;1.30;;;;;;;4.19;45.77;99547.11;1713026;84;21119;-70
2023/02/20 11:25:44;;;;;;;7.55;1.47;;;;;;;4.08;46.10;99549.70;1713260;83;21055;-68
2023/02/20 11:28:24;;;;;;;3.22;1.45;;;;;;;3.99;46.82;99538.58;1713382;84;21053;-69
2023/02/20 11:31:05;;;;;;;3.77;1.50;;;;;;;3.92;47.00;99548.43;1713417;84;21085;-70
2023/02/20 11:33:36;;;;;;;7.35;1.70;;;;;;;3.86;47.24;99539.11;1713362;83;21489;-70
2023/02/20 11:36:21;;;;;;;4.22;1.85;;;;;;;3.81;48.87;99545.56;1713498;84;21057;-67
2023/02/20 11:39:01;;;;;;;4.50;1.62;;;;;;;3.79;46.89;99548.95;1693114;84;21056;-66
2023/02/20 11:41:34;;;;;;;5.37;1.60;;;;;;;3.76;47.44;99546.09;1713487;84;20989;-70
2023/02/20 11:44:22;;;;;;;4.30;1.47;;;;;;;3.76;47.20;99538.47;1712925;84;21117;-68
2023/02/20 11:47:23;;;;;;;;;;;;;;;3.79;47.27;99543.54;1715230;83;21112;-68
2023/02/20 11:50:09;;;;;;;3.20;1.72;;;;;;;3.80;46.53;99541.16;1713227;84;20658;-69
2023/02/20 11:53:04;;;;;;;5.17;1.95;;;;;;;3.78;46.93;99548.63;1687515;84;21030;-68
2023/02/20 11:55:34;;;;;;;6.12;2.50;;;;;;;3.74;46.76;99541.87;1711477;83;21046;-68
2023/02/20 11:58:03;;;;;;;6.08;2.10;;;;;;;3.70;47.23;99529.69;1681207;84;21129;-70
2023/02/20 12:00:47;;;;;;;4.53;1.67;;;;;;;3.73;47.52;99546.95;1710256;84;21093;-69
2023/02/20 12:03:27;;;;;;;5.55;1.50;;;;;;;3.80;47.42;99524.91;1710283;84;21469;-68
2023/02/20 12:05:56;;;;;;;3.75;1.30;;;;;;;3.85;46.48;99537.42;1692952;84;21049;-67
2023/02/20 12:09:00;;;;;;;8.15;2.17;;;;;;;3.83;46.19;99527.27;1710374;84;21052;-70
2023/02/20 12:11:30;;;;;;;8.30;2.20;;;;;;;3.80;46.52;99528.97;1600431;90;21512;-68
2023/02/20 12:14:02;;;;;;;4.22;1.72;;;;;;;3.73;46.82;99534.76;1664352;86;21096;-68
2023/02/20 12:16:54;;;;;;;6.25;1.60;;;;;;;3.70;47.48;99537.82;1642312;86;21107;-70
2023/02/20 12:19:52;;;;;;;6.50;2.00;;;;;;;3.67;47.49;99528.17;1692632;85;21046;-68
2023/02/20 12:22:32;;;;;;;8.48;2.25;;;;;;;3.68;47.71;99523.61;1692544;85;21996;-70
2023/02/20 12:25:21;;;;;;;6.28;1.65;;;;;;;3.71;47.54;99521.39;1692637;85;21074;-69
2023/02/20 12:28:14;;;;;;;5.85;1.67;;;;;;;3.74;47.38;99516.97;1692257;85;21066;-70
2023/02/20 12:31:06;;;;;;;7.80;1.92;;;;;;;3.74;47.16;99518.84;1692253;85;21070;-70
2023/02/20 12:33:57;;;;;;;8.43;2.55;;;;;;;3.72;47.37;99519.52;1674551;85;21160;-69
2023/02/20 12:36:51;;;;;;;7.25;1.80;;;;;;;3.69;47.42;99517.16;1692465;85;21015;-69
2023/02/20 12:39:50;;;;;;;4.47;1.82;;;;;;;3.71;48.34;99517.33;1692307;85;21034;-69